createdAt,value
2022-07-28T00:03:13.667Z,101219.13
2022-07-28T00:08:15.277Z,101220.53
2022-07-28T00:13:16.837Z,101222.69
2022-07-28T00:18:18.482Z,101231.00
2022-07-28T00:23:20.064Z,101231.19
2022-07-28T00:28:21.627Z,101219.47
2022-07-28T00:33:23.698Z,101217.84
2022-07-28T00:38:25.379Z,101220.31
2022-07-28T00:43:28.015Z,101211.41
2022-07-28T00:48:29.587Z,101209.97
2022-07-28T00:53:31.338Z,101201.03
2022-07-28T00:58:33.529Z,101200.44
2022-07-28T01:03:40.344Z,101205.91
2022-07-28T01:09:00.428Z,101196.75
2022-07-28T01:14:09.614Z,101212.88
2022-07-28T01:19:19.642Z,101202.91
2022-07-28T01:24:33.635Z,101209.66
2022-07-28T01:30:00.122Z,101207.00
2022-07-28T01:35:16.474Z,101206.81
2022-07-28T01:40:22.439Z,101191.78
2022-07-28T01:45:25.854Z,101194.25
2022-07-28T01:50:29.817Z,101187.34
2022-07-28T01:55:33.155Z,101181.25
2022-07-28T02:00:36.245Z,101180.81
2022-07-28T02:05:40.787Z,101179.28
2022-07-28T02:10:44.074Z,101167.47
2022-07-28T02:15:46.605Z,101171.84
2022-07-28T02:20:49.549Z,101169.25
2022-07-28T02:25:52.915Z,101165.38
2022-07-28T02:31:01.881Z,101154.97
2022-07-28T02:36:14.239Z,101147.94
2022-07-28T02:41:28.187Z,101154.16
2022-07-28T02:46:37.455Z,101142.91
2022-07-28T02:51:41.912Z,101142.13
2022-07-28T02:56:53.446Z,101145.53
2022-07-28T03:01:56.969Z,101156.59
2022-07-28T03:06:58.609Z,101157.50
2022-07-28T03:12:00.195Z,101155.38
2022-07-28T03:17:01.841Z,101155.63
2022-07-28T03:22:04.420Z,101156.69
2022-07-28T03:27:15.212Z,101149.94
2022-07-28T03:32:19.938Z,101157.72
2022-07-28T03:37:28.089Z,101163.34
2022-07-28T03:42:30.755Z,101158.75
2022-07-28T03:47:32.426Z,101155.63
2022-07-28T03:52:33.983Z,101153.56
2022-07-28T03:57:35.663Z,101159.91
2022-07-28T04:02:37.358Z,101150.34
2022-07-28T04:07:39.917Z,101146.72
2022-07-28T04:12:56.210Z,101151.13
2022-07-28T04:17:58.633Z,101143.75
2022-07-28T04:23:00.228Z,101144.06
2022-07-28T04:28:01.828Z,101145.50
2022-07-28T04:33:07.141Z,101142.03
2022-07-28T04:38:08.743Z,101145.06
2022-07-28T04:43:10.320Z,101149.91
2022-07-28T04:48:12.721Z,101149.25
2022-07-28T04:53:14.344Z,101151.16
2022-07-28T04:58:16.020Z,101158.19
2022-07-28T05:03:20.394Z,101157.22
2022-07-28T05:08:26.237Z,101155.22
2022-07-28T05:13:33.742Z,101158.16
2022-07-28T05:18:35.852Z,101150.00
2022-07-28T05:23:37.454Z,101141.56
2022-07-28T05:28:39.028Z,101146.00
2022-07-28T05:33:40.615Z,101142.75
2022-07-28T05:38:42.796Z,101135.16
2022-07-28T05:43:44.429Z,101144.53
2022-07-28T05:48:46.561Z,101141.88
2022-07-28T05:53:48.161Z,101143.91
2022-07-28T05:58:49.826Z,101148.41
2022-07-28T06:04:10.014Z,101140.97
2022-07-28T06:09:11.906Z,101151.28
2022-07-28T06:14:13.668Z,101149.72
2022-07-28T06:19:15.359Z,101156.69
2022-07-28T06:24:17.185Z,101156.56
2022-07-28T06:29:19.037Z,101150.59
2022-07-28T06:34:20.702Z,101150.59
2022-07-28T06:39:24.665Z,101159.56
2022-07-28T06:44:37.633Z,101146.41
2022-07-28T06:49:47.846Z,101139.59
2022-07-28T06:54:49.815Z,101148.06
2022-07-28T06:59:51.436Z,101149.25
2022-07-28T07:04:53.044Z,101161.41
2022-07-28T07:09:54.628Z,101165.69
2022-07-28T07:14:56.210Z,101163.44
2022-07-28T07:19:57.801Z,101155.59
2022-07-28T07:25:07.859Z,101157.41
2022-07-28T07:30:10.384Z,101156.34
2022-07-28T07:35:12.282Z,101151.97
2022-07-28T07:40:13.904Z,101146.03
2022-07-28T07:45:15.466Z,101150.47
2022-07-28T07:50:17.019Z,101141.38
2022-07-28T07:55:18.766Z,101128.03
2022-07-28T08:00:28.979Z,101135.25
2022-07-28T08:05:34.906Z,101129.41
2022-07-28T08:10:38.823Z,101124.25
2022-07-28T08:15:40.404Z,101121.75
2022-07-28T08:20:42.006Z,101120.78
2022-07-28T08:25:44.154Z,101114.19
2022-07-28T08:30:45.753Z,101115.41
2022-07-28T08:35:48.532Z,101107.41
2022-07-28T08:40:53.400Z,101109.25
2022-07-28T08:45:58.510Z,101094.34
2022-07-28T08:51:11.242Z,101101.75
2022-07-28T08:56:15.288Z,101095.19
2022-07-28T09:01:17.504Z,101098.97
2022-07-28T09:06:21.658Z,101093.97
2022-07-28T09:11:28.178Z,101093.59
2022-07-28T09:16:30.234Z,101089.63
2022-07-28T09:21:32.192Z,101085.25
2022-07-28T09:26:33.852Z,101079.84
2022-07-28T09:31:35.495Z,101069.94
2022-07-28T09:36:39.905Z,101068.75
2022-07-28T09:41:53.946Z,101069.06
2022-07-28T09:46:56.701Z,101074.19
2022-07-28T09:52:03.207Z,101060.81
2022-07-28T09:57:09.906Z,101053.84
2022-07-28T10:02:11.800Z,101049.81
2022-07-28T10:07:14.328Z,101044.88
2022-07-28T10:12:23.387Z,101040.31
2022-07-28T10:17:43.100Z,101034.91
2022-07-28T10:22:44.735Z,101024.78
2022-07-28T10:27:48.459Z,101027.25
2022-07-28T10:32:52.559Z,101018.91
2022-07-28T10:38:14.072Z,101011.13
2022-07-28T10:43:15.738Z,101001.91
2022-07-28T10:48:17.497Z,101014.28
2022-07-28T10:53:48.039Z,101007.34
2022-07-28T10:59:20.046Z,100998.34
2022-07-28T11:04:45.606Z,100993.75
2022-07-28T11:09:47.436Z,100997.88
2022-07-28T11:14:49.147Z,100995.41
2022-07-28T11:20:24.588Z,100985.84
2022-07-28T11:25:19.483Z,100988.72
2022-07-28T11:30:26.009Z,100980.16
2022-07-28T11:35:28.785Z,100966.81
2022-07-28T11:40:38.781Z,100972.06
2022-07-28T11:45:44.408Z,100955.84
2022-07-28T11:51:04.158Z,100956.09
2022-07-28T11:56:11.457Z,100951.69
2022-07-28T12:01:17.503Z,100951.69
2022-07-28T12:06:28.637Z,100947.19
2022-07-28T12:11:35.818Z,100943.06
2022-07-28T12:16:39.749Z,100937.91
2022-07-28T12:21:55.386Z,100938.81
2022-07-28T12:26:58.953Z,100938.25
2022-07-28T12:32:03.498Z,100931.09
2022-07-28T12:37:07.318Z,100930.91
2022-07-28T12:42:12.450Z,100920.06
2022-07-28T12:47:15.846Z,100909.09
2022-07-28T12:52:24.887Z,100906.09
2022-07-28T12:57:43.286Z,100904.34
2022-07-28T13:02:51.658Z,100905.81
2022-07-28T13:08:04.991Z,100900.47
2022-07-28T13:13:07.613Z,100901.16
2022-07-28T13:18:09.318Z,100895.56
2022-07-28T13:23:10.866Z,100894.75
2022-07-28T13:28:41.784Z,100886.00
2022-07-28T13:33:43.329Z,100879.59
2022-07-28T13:38:44.872Z,100883.44
2022-07-28T13:43:48.242Z,100880.78
2022-07-28T13:48:57.416Z,100881.25
2022-07-28T13:54:00.734Z,100866.88
2022-07-28T13:59:02.351Z,100873.66
2022-07-28T14:04:04.286Z,100870.16
2022-07-28T14:09:05.831Z,100853.78
2022-07-28T14:14:07.753Z,100854.44
2022-07-28T14:19:14.364Z,100846.78
2022-07-28T14:24:17.789Z,100846.97
2022-07-28T14:29:19.740Z,100854.50
2022-07-28T14:34:21.279Z,100847.16
2022-07-28T14:39:26.841Z,100841.53
2022-07-28T14:44:29.686Z,100839.03
2022-07-28T14:49:31.354Z,100839.69
2022-07-28T14:54:33.719Z,100836.09
2022-07-28T14:59:35.294Z,100833.88
2022-07-28T15:04:37.459Z,100830.59
2022-07-28T15:09:42.820Z,100822.66
2022-07-28T15:14:46.787Z,100828.50
2022-07-28T15:19:48.339Z,100832.47
2022-07-28T15:24:50.347Z,100826.13
2022-07-28T15:29:52.491Z,100832.34
2022-07-28T15:34:54.246Z,100825.16
2022-07-28T15:39:55.822Z,100819.72
2022-07-28T15:45:01.041Z,100826.44
2022-07-28T15:50:03.260Z,100813.47
2022-07-28T15:55:05.340Z,100814.22
2022-07-28T16:00:07.916Z,100815.13
2022-07-28T16:05:09.641Z,100806.84
2022-07-28T16:10:11.223Z,100808.44
2022-07-28T16:15:12.804Z,100802.84
2022-07-28T16:20:14.431Z,100797.53
2022-07-28T16:25:16.451Z,100799.78
2022-07-28T16:30:18.859Z,100795.63
2022-07-28T16:35:20.462Z,100802.06
2022-07-28T16:40:22.037Z,100800.38
2022-07-28T16:45:23.803Z,100800.22
2022-07-28T16:50:33.278Z,100795.22
2022-07-28T16:55:35.040Z,100797.03
2022-07-28T17:00:36.779Z,100801.22
2022-07-28T17:05:38.716Z,100798.78
2022-07-28T17:10:40.557Z,100802.38
2022-07-28T17:15:49.666Z,100800.84
2022-07-28T17:20:51.603Z,100807.72
2022-07-28T17:31:14.916Z,100793.34
2022-07-28T17:36:16.731Z,100794.59
2022-07-28T17:41:18.280Z,100794.28
2022-07-28T17:46:21.157Z,100793.56
2022-07-28T17:51:23.159Z,100796.63
2022-07-28T17:56:24.975Z,100788.59
2022-07-28T18:01:28.108Z,100797.72
2022-07-28T18:06:34.185Z,100789.44
2022-07-28T18:11:56.619Z,100788.34
2022-07-28T18:16:59.435Z,100782.50
2022-07-28T18:22:01.038Z,100786.84
2022-07-28T18:27:02.735Z,100791.13
2022-07-28T18:32:04.616Z,100795.53
2022-07-28T18:37:06.261Z,100795.75
2022-07-28T18:42:07.839Z,100803.34
2022-07-28T18:47:09.589Z,100799.38
2022-07-28T18:52:11.188Z,100805.09
2022-07-28T18:57:12.805Z,100808.31
2022-07-28T19:02:14.660Z,100804.44
2022-07-28T19:07:16.606Z,100804.50
2022-07-28T19:12:18.565Z,100800.78
2022-07-28T19:17:25.721Z,100808.38
2022-07-28T19:22:27.766Z,100810.84
2022-07-28T19:27:30.698Z,100823.72
2022-07-28T19:32:32.520Z,100828.03
2022-07-28T19:37:34.063Z,100824.34
2022-07-28T19:42:35.683Z,100840.19
2022-07-28T19:47:37.340Z,100844.19
2022-07-28T19:52:39.008Z,100849.88
2022-07-28T19:57:40.901Z,100848.03
2022-07-28T20:02:42.854Z,100856.06
2022-07-28T20:07:44.497Z,100860.09
2022-07-28T20:12:46.238Z,100854.47
2022-07-28T20:17:48.031Z,100848.59
2022-07-28T20:22:49.656Z,100849.38
2022-07-28T20:27:51.771Z,100843.53
2022-07-28T20:32:53.385Z,100840.06
2022-07-28T20:37:54.952Z,100849.97
2022-07-28T20:42:56.523Z,100849.41
2022-07-28T20:47:58.079Z,100860.91
2022-07-28T20:52:59.687Z,100863.31
2022-07-28T20:58:08.772Z,100866.19
2022-07-28T21:03:10.332Z,100868.56
2022-07-28T21:08:16.288Z,100870.94
2022-07-28T21:13:18.842Z,100867.97
2022-07-28T21:18:20.386Z,100873.91
2022-07-28T21:23:21.987Z,100878.94
2022-07-28T21:28:23.553Z,100884.50
2022-07-28T21:33:25.141Z,100893.84
2022-07-28T21:38:26.815Z,100894.66
2022-07-28T21:43:28.383Z,100898.25
2022-07-28T21:48:32.751Z,100892.53
2022-07-28T21:53:34.694Z,100890.31
2022-07-28T21:58:36.446Z,100895.66
2022-07-28T22:03:39.441Z,100898.69
2022-07-28T22:08:41.525Z,100896.72
2022-07-28T22:13:43.062Z,100900.66
2022-07-28T22:18:44.629Z,100907.06
2022-07-28T22:23:46.169Z,100901.88
2022-07-28T22:28:47.863Z,100897.03
2022-07-28T22:33:49.436Z,100898.06
2022-07-28T22:38:50.987Z,100892.13
2022-07-28T22:43:52.500Z,100896.66
2022-07-28T22:48:54.304Z,100890.94
2022-07-28T22:53:55.974Z,100892.66
2022-07-28T22:58:57.496Z,100889.13
2022-07-28T23:03:59.160Z,100891.94
2022-07-28T23:09:01.308Z,100883.41
2022-07-28T23:14:02.938Z,100878.09
2022-07-28T23:19:04.657Z,100865.13
2022-07-28T23:24:06.854Z,100869.00
2022-07-28T23:29:08.685Z,100874.44
2022-07-28T23:34:10.277Z,100878.16
2022-07-28T23:39:11.838Z,100854.53
2022-07-28T23:44:13.695Z,100856.97
2022-07-28T23:49:15.567Z,100853.75
2022-07-28T23:54:17.636Z,100853.44
2022-07-28T23:59:19.465Z,100862.78
